Time;durP1;ratioP1;P1;durP2;ratioP2;P2;SDS_P1;SDS_P2;PMS_P1;PMS_P2;Temp;Humidity;BMP_temperature;BMP_pressure;BME280_temperature;BME280_humidity;BME280_pressure;Samples;Min_cycle;Max_cycle;Signal;HPM_P1;HPM_P2
2023/05/15 00:00:10;;;;;;;39.47;28.30;;;11.60;99.90;;;;;;5057509;28;20056;-63
2023/05/15 00:02:43;;;;;;;46.83;30.13;;;11.60;99.90;;;;;;5057648;28;20126;-64
2023/05/15 00:05:09;;;;;;;36.90;28.25;;;11.70;99.90;;;;;;5057300;28;20053;-63
2023/05/15 00:07:36;;;;;;;42.05;29.08;;;11.70;99.90;;;;;;5057796;28;20021;-65
2023/05/15 00:10:02;;;;;;;42.60;29.13;;;11.70;99.90;;;;;;5073231;28;20094;-65
2023/05/15 00:12:28;;;;;;;39.35;28.50;;;11.70;99.90;;;;;;5056580;28;20029;-65
2023/05/15 00:14:54;;;;;;;41.38;29.23;;;11.70;99.90;;;;;;5057216;28;20033;-64
2023/05/15 00:17:20;;;;;;;40.28;28.35;;;11.80;99.90;;;;;;5073126;28;20041;-69
2023/05/15 00:19:45;;;;;;;45.95;28.90;;;11.90;99.90;;;;;;5057216;28;20444;-65
2023/05/15 00:22:11;;;;;;;39.25;28.45;;;11.90;99.90;;;;;;5039867;28;20036;-68
2023/05/15 00:24:37;;;;;;;42.08;28.35;;;11.90;99.90;;;;;;5056277;28;20060;-67
2023/05/15 00:27:03;;;;;;;40.70;29.42;;;11.90;99.90;;;;;;5057148;28;20024;-68
2023/05/15 00:29:29;;;;;;;41.65;29.05;;;11.80;99.90;;;;;;5056905;28;20048;-65
2023/05/15 00:31:55;;;;;;;42.92;29.42;;;11.80;99.90;;;;;;5056976;28;20273;-70
2023/05/15 00:34:24;;;;;;;41.97;28.05;;;11.90;99.90;;;;;;5073015;28;20039;-67
2023/05/15 00:36:50;;;;;;;39.47;29.25;;;11.80;99.90;;;;;;5056077;28;20021;-63
2023/05/15 00:39:16;;;;;;;41.63;29.75;;;11.80;99.90;;;;;;5056948;28;20035;-65
2023/05/15 00:41:43;;;;;;;45.60;30.45;;;11.70;99.90;;;;;;5039683;28;20124;-62
2023/05/15 00:44:11;;;;;;;42.15;30.98;;;11.80;99.90;;;;;;5056769;28;20158;-67
2023/05/15 00:46:38;;;;;;;42.83;31.90;;;11.70;99.90;;;;;;5056114;28;20403;-64
2023/05/15 00:49:05;;;;;;;47.05;31.17;;;11.70;99.90;;;;;;5072558;28;20052;-66
2023/05/15 00:51:31;;;;;;;43.80;31.45;;;11.60;99.90;;;;;;5057054;28;20051;-66
2023/05/15 00:53:58;;;;;;;41.97;30.73;;;11.60;99.90;;;;;;5056734;28;20108;-64
2023/05/15 00:56:29;;;;;;;43.30;29.98;;;11.60;99.90;;;;;;5056788;28;20040;-66
2023/05/15 00:58:58;;;;;;;43.95;31.35;;;11.60;99.90;;;;;;5072685;28;20029;-64
2023/05/15 01:01:24;;;;;;;42.45;30.67;;;11.60;99.90;;;;;;5056679;28;20146;-68
2023/05/15 01:03:50;;;;;;;46.83;31.20;;;11.60;99.90;;;;;;5055872;28;20064;-65
2023/05/15 01:06:16;;;;;;;43.97;31.17;;;11.60;99.90;;;;;;5056971;28;20048;-66
2023/05/15 01:08:44;;;;;;;45.88;31.83;;;11.60;99.90;;;;;;5055784;28;20040;-66
2023/05/15 01:11:12;;;;;;;45.60;31.70;;;11.50;99.90;;;;;;5055996;28;20035;-66
2023/05/15 01:13:38;;;;;;;50.22;32.83;;;11.50;99.90;;;;;;5072494;28;20037;-64
2023/05/15 01:16:05;;;;;;;47.38;33.38;;;11.50;99.90;;;;;;5056536;28;20438;-65
2023/05/15 01:18:32;;;;;;;44.58;32.40;;;11.50;99.90;;;;;;5056517;28;20434;-65
2023/05/15 01:21:03;;;;;;;47.75;33.13;;;11.50;99.90;;;;;;5055900;28;20037;-64
2023/05/15 01:23:42;;;;;;;50.72;33.60;;;11.50;99.90;;;;;;5072376;28;20037;-64
2023/05/15 01:26:26;;;;;;;56.30;36.33;;;11.50;99.90;;;;;;5056558;28;20033;-68
2023/05/15 01:29:04;;;;;;;56.65;36.35;;;11.70;99.90;;;;;;5056459;28;20050;-62
2023/05/15 01:31:32;;;;;;;56.95;37.42;;;11.50;99.90;;;;;;5056768;28;20110;-63
2023/05/15 01:34:02;;;;;;;57.72;36.80;;;11.50;99.90;;;;;;5056345;28;20033;-63
2023/05/15 01:37:00;;;;;;;54.85;37.20;;;11.40;99.90;;;;;;5056572;28;20041;-64
2023/05/15 01:39:31;;;;;;;56.22;37.33;;;11.40;99.90;;;;;;5037364;28;20048;-63
2023/05/15 01:42:06;;;;;;;60.55;39.28;;;11.30;99.90;;;;;;5060150;28;20102;-64
2023/05/15 01:44:35;;;;;;;57.63;39.28;;;11.30;99.90;;;;;;5060097;28;20032;-65
2023/05/15 01:47:19;;;;;;;59.80;39.70;;;11.30;99.90;;;;;;5060574;28;20055;-63
2023/05/15 01:49:48;;;;;;;61.10;39.35;;;11.30;99.90;;;;;;5076002;28;20286;-63
2023/05/15 01:52:19;;;;;;;59.88;40.15;;;11.20;99.90;;;;;;5059979;28;20098;-64
2023/05/15 01:54:46;;;;;;;60.03;40.38;;;11.20;99.90;;;;;;5059972;28;20048;-64
2023/05/15 01:57:14;;;;;;;62.13;40.42;;;11.10;99.90;;;;;;5059881;28;20033;-64
2023/05/15 01:59:41;;;;;;;64.00;42.03;;;11.00;99.90;;;;;;5059797;28;20051;-66
2023/05/15 02:02:09;;;;;;;63.38;42.53;;;11.10;99.90;;;;;;5059797;28;20045;-66
2023/05/15 02:04:37;;;;;;;68.60;42.70;;;11.10;99.90;;;;;;5042485;28;20059;-65
2023/05/15 02:07:04;;;;;;;65.78;41.95;;;10.90;99.90;;;;;;5059727;28;20041;-64
2023/05/15 02:09:31;;;;;;;66.50;43.00;;;10.90;99.90;;;;;;5059644;28;20029;-66
2023/05/15 02:12:00;;;;;;;72.28;45.40;;;11.10;99.90;;;;;;5075471;28;20301;-67
2023/05/15 02:14:28;;;;;;;73.78;46.13;;;11.00;99.90;;;;;;5059477;28;20036;-66
2023/05/15 02:16:54;;;;;;;77.70;47.10;;;11.10;99.90;;;;;;5059572;28;20033;-65
2023/05/15 02:19:20;;;;;;;74.05;45.65;;;11.10;99.90;;;;;;5059504;28;20037;-66
2023/05/15 02:21:47;;;;;;;78.28;47.88;;;11.10;99.90;;;;;;5059453;28;20033;-64
2023/05/15 02:24:13;;;;;;;76.28;46.97;;;11.10;99.90;;;;;;5059322;28;20029;-66
2023/05/15 02:27:04;;;;;;;75.97;45.75;;;11.00;99.90;;;;;;5075507;28;20408;-66
2023/05/15 02:29:50;;;;;;;76.65;45.38;;;11.00;99.90;;;;;;5059307;28;20096;-64
2023/05/15 02:32:38;;;;;;;70.20;43.90;;;11.20;99.90;;;;;;5059720;28;20045;-64
2023/05/15 02:35:20;;;;;;;68.63;44.05;;;11.10;99.90;;;;;;5059194;28;20113;-65
2023/05/15 02:37:51;;;;;;;69.45;43.47;;;11.00;99.90;;;;;;5075045;28;20021;-64
2023/05/15 02:40:19;;;;;;;70.25;44.53;;;10.90;99.90;;;;;;5059145;28;20090;-66
2023/05/15 02:42:46;;;;;;;68.07;43.20;;;10.90;99.90;;;;;;5058936;28;20336;-63
2023/05/15 02:45:12;;;;;;;68.50;43.72;;;10.90;99.90;;;;;;5058961;28;20067;-65
2023/05/15 02:47:39;;;;;;;68.65;43.30;;;11.00;99.90;;;;;;5059328;28;20112;-66
2023/05/15 02:50:06;;;;;;;63.67;42.17;;;11.00;99.90;;;;;;5074828;28;20328;-66
2023/05/15 02:52:33;;;;;;;67.95;44.22;;;11.10;99.90;;;;;;5058819;28;20456;-63
2023/05/15 02:54:59;;;;;;;68.93;42.83;;;11.10;99.90;;;;;;5058098;28;20048;-63
2023/05/15 02:57:25;;;;;;;66.32;42.95;;;11.30;99.90;;;;;;5057970;28;20043;-63
2023/05/15 02:59:53;;;;;;;65.40;42.45;;;11.40;99.90;;;;;;5074517;28;20412;-63
2023/05/15 03:02:19;;;;;;;69.00;43.63;;;11.30;99.90;;;;;;5058641;28;20029;-64
2023/05/15 03:04:45;;;;;;;63.85;41.95;;;11.30;99.90;;;;;;5057610;28;20370;-65
2023/05/15 03:07:11;;;;;;;63.08;41.78;;;11.30;99.90;;;;;;5058544;28;20033;-63
2023/05/15 03:09:37;;;;;;;67.00;43.75;;;11.40;99.90;;;;;;5074435;28;20033;-65
2023/05/15 03:12:03;;;;;;;63.88;42.75;;;11.30;99.90;;;;;;5058414;28;20055;-68
2023/05/15 03:14:28;;;;;;;65.28;43.53;;;11.40;99.90;;;;;;5057769;28;20340;-66
2023/05/15 03:16:54;;;;;;;68.55;43.75;;;11.40;99.90;;;;;;5058944;28;20258;-64
2023/05/15 03:19:20;;;;;;;65.88;42.50;;;11.50;99.90;;;;;;5057561;28;20041;-66
2023/05/15 03:21:46;;;;;;;65.90;43.45;;;11.60;99.90;;;;;;5058335;28;20112;-65
2023/05/15 03:24:12;;;;;;;63.15;43.05;;;11.60;99.90;;;;;;5073984;28;20033;-67
2023/05/15 03:26:39;;;;;;;65.30;42.60;;;11.50;99.90;;;;;;5058195;28;20021;-67
2023/05/15 03:29:05;;;;;;;63.45;41.75;;;11.50;99.90;;;;;;5074212;28;20463;-67
2023/05/15 03:31:31;;;;;;;69.28;45.22;;;11.50;99.90;;;;;;5058095;28;20033;-68
2023/05/15 03:33:56;;;;;;;67.05;43.25;;;11.40;99.90;;;;;;5057348;28;20037;-67
2023/05/15 03:36:22;;;;;;;64.32;43.90;;;11.50;99.90;;;;;;5074000;28;20400;-67
2023/05/15 03:38:48;;;;;;;62.35;40.53;;;11.30;99.90;;;;;;5057355;28;20493;-67
2023/05/15 03:41:14;;;;;;;66.07;43.65;;;11.30;99.90;;;;;;5057993;28;20161;-64
2023/05/15 03:43:40;;;;;;;73.90;44.85;;;11.40;99.90;;;;;;5057978;28;20029;-67
2023/05/15 03:46:05;;;;;;;70.85;45.28;;;11.50;99.90;;;;;;5073727;28;20036;-65
2023/05/15 03:48:31;;;;;;;69.38;45.30;;;11.40;99.90;;;;;;5057235;28;20033;-67
2023/05/15 03:50:57;;;;;;;74.15;45.08;;;11.30;99.90;;;;;;5057803;28;20033;-68
2023/05/15 03:53:26;;;;;;;69.53;43.85;;;11.00;99.90;;;;;;5057139;28;20040;-66
2023/05/15 03:55:52;;;;;;;72.43;45.22;;;10.90;99.90;;;;;;5058174;28;20258;-66
2023/05/15 03:58:18;;;;;;;72.63;43.45;;;11.00;99.90;;;;;;5073334;28;20131;-63
2023/05/15 04:00:44;;;;;;;71.97;44.67;;;11.10;99.90;;;;;;5057443;28;20164;-65
2023/05/15 04:03:10;;;;;;;68.85;43.72;;;11.30;99.90;;;;;;5056032;28;20040;-66
2023/05/15 04:05:36;;;;;;;73.90;44.63;;;11.40;99.90;;;;;;5039850;28;20056;-63
2023/05/15 04:08:01;;;;;;;69.90;43.67;;;11.50;99.90;;;;;;5056510;28;20043;-65
2023/05/15 04:10:28;;;;;;;72.28;44.60;;;11.50;99.90;;;;;;5040146;28;20476;-63
2023/05/15 04:12:54;;;;;;;72.53;43.50;;;11.50;99.90;;;;;;5057292;28;20090;-66
2023/05/15 04:15:20;;;;;;;63.72;40.22;;;11.60;99.90;;;;;;5057171;28;20381;-65
2023/05/15 04:17:48;;;;;;;61.13;39.20;;;11.40;99.90;;;;;;5057121;28;20142;-65
2023/05/15 04:20:16;;;;;;;72.32;44.08;;;11.20;99.90;;;;;;5057116;28;20407;-66
2023/05/15 04:22:43;;;;;;;73.13;44.15;;;11.10;99.90;;;;;;5057002;28;20039;-65
2023/05/15 04:25:10;;;;;;;69.95;42.53;;;11.10;99.90;;;;;;5057038;28;20418;-66
2023/05/15 04:27:37;;;;;;;69.25;43.05;;;11.00;99.90;;;;;;5057028;28;20102;-63
2023/05/15 04:30:04;;;;;;;76.45;45.67;;;11.00;99.90;;;;;;5057131;28;20388;-64
2023/05/15 04:32:33;;;;;;;70.63;44.97;;;11.00;99.90;;;;;;5072873;28;20123;-66
2023/05/15 04:35:00;;;;;;;77.07;45.80;;;11.10;99.90;;;;;;5072882;28;20033;-63
2023/05/15 04:37:26;;;;;;;78.65;45.72;;;11.30;99.90;;;;;;5072704;28;20033;-63
2023/05/15 04:39:53;;;;;;;82.80;47.90;;;11.40;99.90;;;;;;5072870;28;20029;-64
2023/05/15 04:42:18;;;;;;;79.72;47.03;;;11.40;99.90;;;;;;5056877;28;20322;-66
2023/05/15 04:44:44;;;;;;;80.53;46.05;;;11.40;99.90;;;;;;5056074;28;20044;-64
2023/05/15 04:47:10;;;;;;;72.20;43.85;;;11.40;99.90;;;;;;5056290;28;20025;-66
2023/05/15 04:49:36;;;;;;;70.65;44.47;;;11.40;99.90;;;;;;5056218;28;20039;-64
2023/05/15 04:52:02;;;;;;;73.78;43.75;;;11.50;99.90;;;;;;5056775;28;20029;-63
2023/05/15 04:54:28;;;;;;;72.03;43.85;;;11.50;99.90;;;;;;5056708;28;20429;-63
2023/05/15 04:56:54;;;;;;;75.32;45.63;;;11.60;99.90;;;;;;5072720;28;20063;-67
2023/05/15 04:59:20;;;;;;;78.22;46.58;;;11.70;99.90;;;;;;5072740;28;20033;-65
2023/05/15 05:01:46;;;;;;;84.30;48.80;;;11.90;99.90;;;;;;5039243;28;20044;-65
2023/05/15 05:04:12;;;;;;;83.50;47.95;;;11.90;99.90;;;;;;5072376;28;20049;-67
2023/05/15 05:06:38;;;;;;;81.85;48.30;;;11.80;99.90;;;;;;5055607;28;20085;-69
2023/05/15 05:09:03;;;;;;;81.38;48.97;;;11.70;99.90;;;;;;5056607;28;20055;-68
2023/05/15 05:11:29;;;;;;;95.28;51.60;;;11.80;99.90;;;;;;5072181;28;20103;-67
2023/05/15 05:13:55;;;;;;;92.30;52.13;;;11.90;99.90;;;;;;5040327;28;20300;-64
2023/05/15 05:16:21;;;;;;;97.80;52.40;;;11.90;99.90;;;;;;5059966;28;20029;-64
2023/05/15 05:18:46;;;;;;;90.22;53.47;;;11.90;99.90;;;;;;5060573;28;20083;-68
2023/05/15 05:21:12;;;;;;;88.70;51.47;;;12.10;99.90;;;;;;5059856;28;20036;-64
2023/05/15 05:23:38;;;;;;;85.05;52.38;;;12.00;99.90;;;;;;5059748;28;20447;-64
2023/05/15 05:26:04;;;;;;;83.85;51.10;;;12.10;99.90;;;;;;5060425;28;20055;-65
2023/05/15 05:28:30;;;;;;;83.57;49.72;;;12.10;99.90;;;;;;5060417;28;20033;-65
2023/05/15 05:30:56;;;;;;;84.63;50.28;;;12.00;99.90;;;;;;5060652;28;20296;-65
2023/05/15 05:33:22;;;;;;;78.55;49.47;;;12.10;99.90;;;;;;5076289;28;20037;-69
2023/05/15 05:35:47;;;;;;;77.47;50.00;;;12.10;99.90;;;;;;5059517;28;20041;-66
2023/05/15 05:38:13;;;;;;;75.70;47.15;;;12.20;99.90;;;;;;5059416;28;20040;-64
2023/05/15 05:40:39;;;;;;;76.75;48.50;;;12.40;99.90;;;;;;5076133;28;20033;-67
2023/05/15 05:43:05;;;;;;;75.22;47.67;;;12.40;99.90;;;;;;5059517;28;20025;-65
2023/05/15 05:45:34;;;;;;;77.15;47.03;;;12.50;99.90;;;;;;5060060;28;20439;-64
2023/05/15 05:48:00;;;;;;;77.68;46.92;;;12.60;99.50;;;;;;5060043;28;20029;-63
2023/05/15 05:50:26;;;;;;;73.70;46.42;;;12.80;99.00;;;;;;5075956;28;20170;-68
2023/05/15 05:52:52;;;;;;;70.63;45.00;;;12.80;96.90;;;;;;5059914;28;20116;-65
2023/05/15 05:55:18;;;;;;;73.65;47.10;;;12.90;98.50;;;;;;5059687;28;20102;-63
2023/05/15 05:57:44;;;;;;;75.97;46.53;;;13.10;96.00;;;;;;5059946;28;20025;-64
2023/05/15 06:00:11;;;;;;;74.72;45.15;;;13.40;90.80;;;;;;5076036;28;20025;-66
2023/05/15 06:02:39;;;;;;;78.05;47.42;;;13.40;88.30;;;;;;5059415;28;20072;-65
2023/05/15 06:05:06;;;;;;;71.55;45.95;;;13.30;85.90;;;;;;5075353;28;20056;-64
2023/05/15 06:07:34;;;;;;;76.28;45.55;;;13.20;90.60;;;;;;5058924;28;20031;-67
2023/05/15 06:10:00;;;;;;;78.03;47.92;;;13.20;90.50;;;;;;5059689;28;20036;-68
2023/05/15 06:12:26;;;;;;;76.60;45.83;;;13.10;90.40;;;;;;5058793;28;20044;-65
2023/05/15 06:14:52;;;;;;;78.63;47.10;;;13.30;91.40;;;;;;5059513;28;20029;-64
2023/05/15 06:17:18;;;;;;;73.80;45.50;;;13.60;78.40;;;;;;5075383;28;20231;-67
2023/05/15 06:19:44;;;;;;;79.20;46.47;;;13.70;73.70;;;;;;5059415;28;20349;-68
2023/05/15 06:22:10;;;;;;;82.05;47.55;;;13.50;72.10;;;;;;5058694;28;20128;-68
2023/05/15 06:24:36;;;;;;;81.78;47.60;;;13.40;82.10;;;;;;5058792;28;20396;-64
2023/05/15 06:27:02;;;;;;;92.43;50.58;;;13.60;79.70;;;;;;5058499;28;20033;-65
2023/05/15 06:29:28;;;;;;;98.85;53.42;;;13.90;69.60;;;;;;5041964;28;20051;-68
2023/05/15 06:31:53;;;;;;;98.63;52.45;;;14.10;61.00;;;;;;5059235;28;20059;-68
2023/05/15 06:34:19;;;;;;;98.20;52.45;;;14.10;55.30;;;;;;5058479;28;20037;-66
2023/05/15 06:36:45;;;;;;;90.68;51.83;;;14.20;59.40;;;;;;5059178;28;20033;-68
2023/05/15 06:39:11;;;;;;;89.03;50.35;;;14.50;45.00;;;;;;5058416;28;20029;-69
2023/05/15 06:41:37;;;;;;;98.82;51.58;;;14.20;54.30;;;;;;5058840;28;20064;-71
2023/05/15 06:44:03;;;;;;;85.68;50.25;;;14.50;48.10;;;;;;5058911;28;20065;-68
2023/05/15 06:46:29;;;;;;;87.57;49.63;;;14.30;34.40;;;;;;5074696;28;20112;-68
2023/05/15 06:48:55;;;;;;;87.60;48.83;;;13.70;56.30;;;;;;5058169;28;20140;-71
2023/05/15 06:51:21;;;;;;;77.85;45.55;;;13.60;75.40;;;;;;5058848;28;20408;-69
2023/05/15 06:53:46;;;;;;;78.65;46.47;;;13.70;69.80;;;;;;5074581;28;20082;-71
2023/05/15 06:56:12;;;;;;;79.40;47.72;;;13.80;57.80;;;;;;5059046;28;20033;-70
2023/05/15 06:58:38;;;;;;;77.95;44.45;;;14.00;56.80;;;;;;5058631;28;20444;-69
2023/05/15 07:01:05;;;;;;;78.60;46.55;;;14.10;46.00;;;;;;5058681;28;20025;-69
2023/05/15 07:03:32;;;;;;;72.18;42.88;;;13.80;66.60;;;;;;5058408;28;20286;-69
2023/05/15 07:05:58;;;;;;;72.72;42.78;;;13.90;60.50;;;;;;5074496;28;20040;-70
2023/05/15 07:08:23;;;;;;;73.28;43.40;;;14.10;47.90;;;;;;5058516;28;20397;-67
2023/05/15 07:10:49;;;;;;;68.22;41.22;;;14.00;43.40;;;;;;5058834;28;20060;-68
2023/05/15 07:13:19;;;;;;;73.32;45.33;;;13.90;64.10;;;;;;5074311;28;20096;-65
2023/05/15 07:15:45;;;;;;;75.70;45.80;;;14.30;45.60;;;;;;5059007;28;20048;-71
2023/05/15 07:18:12;;;;;;;73.97;42.78;;;14.20;38.60;;;;;;5074292;28;20033;-69
2023/05/15 07:20:38;;;;;;;75.40;44.50;;;14.20;44.80;;;;;;5058354;28;20315;-69
2023/05/15 07:23:04;;;;;;;72.57;44.00;;;13.80;57.30;;;;;;5058200;28;20040;-68
2023/05/15 07:25:30;;;;;;;71.28;43.50;;;13.90;54.90;;;;;;5074000;28;20029;-70
2023/05/15 07:27:56;;;;;;;73.85;44.58;;;13.70;66.20;;;;;;5058180;28;20039;-69
2023/05/15 07:30:22;;;;;;;72.65;44.30;;;14.20;53.60;;;;;;5058105;28;20036;-70
2023/05/15 07:32:48;;;;;;;81.43;46.45;;;14.60;34.60;;;;;;5058397;28;20036;-72
2023/05/15 07:35:14;;;;;;;83.05;48.38;;;14.70;26.20;;;;;;5058027;28;20042;-68
2023/05/15 07:37:40;;;;;;;80.95;47.35;;;14.80;20.10;;;;;;5057211;28;20407;-66
2023/05/15 07:40:06;;;;;;;79.00;46.45;;;14.80;13.70;;;;;;5057968;28;20036;-69
2023/05/15 07:42:32;;;;;;;80.85;45.88;;;14.30;37.50;;;;;;5057918;28;20048;-71
2023/05/15 07:44:58;;;;;;;78.57;45.58;;;14.30;35.00;;;;;;5057865;28;20028;-69
2023/05/15 07:47:24;;;;;;;83.45;47.20;;;14.50;27.10;;;;;;5058134;28;20037;-66
2023/05/15 07:49:50;;;;;;;84.68;46.38;;;14.80;16.40;;;;;;5073734;28;20033;-70
2023/05/15 07:52:15;;;;;;;82.43;47.78;;;14.90;6.80;;;;;;5057613;28;20051;-68
2023/05/15 07:54:41;;;;;;;79.68;46.13;;;15.30;1.00;;;;;;5040528;28;20428;-69
2023/05/15 07:57:08;;;;;;;80.68;45.20;;;15.00;1.00;;;;;;5073626;28;20384;-69
2023/05/15 07:59:34;;;;;;;80.60;46.13;;;15.00;2.20;;;;;;5057597;28;20095;-68
2023/05/15 08:02:01;;;;;;;92.25;49.35;;;14.10;27.40;;;;;;5057562;28;20041;-69
2023/05/15 08:04:27;;;;;;;90.95;48.30;;;14.50;39.90;;;;;;5056467;28;20064;-70
2023/05/15 08:06:52;;;;;;;104.57;52.67;;;15.00;20.00;;;;;;5057469;28;20024;-67
2023/05/15 08:09:18;;;;;;;107.85;54.67;;;15.40;1.00;;;;;;5073329;28;20483;-68
2023/05/15 08:11:44;;;;;;;117.70;55.78;;;14.90;1.00;;;;;;5057370;28;20025;-69
2023/05/15 08:14:10;;;;;;;118.38;56.90;;;13.80;45.60;;;;;;5073165;28;20438;-70
2023/05/15 08:16:36;;;;;;;128.85;60.22;;;13.50;64.60;;;;;;5056551;28;20041;-69
2023/05/15 08:19:03;;;;;;;131.15;59.20;;;13.30;75.90;;;;;;5073090;28;20037;-70
2023/05/15 08:21:30;;;;;;;128.55;58.88;;;13.40;71.50;;;;;;5072879;28;20301;-68
2023/05/15 08:23:56;;;;;;;121.40;58.95;;;13.50;70.90;;;;;;5056443;28;20102;-69
2023/05/15 08:26:22;;;;;;;130.20;60.72;;;13.70;61.30;;;;;;5057222;28;20375;-70
2023/05/15 08:28:48;;;;;;;129.00;59.58;;;13.50;66.80;;;;;;5056986;28;20099;-68
2023/05/15 08:31:14;;;;;;;127.72;59.35;;;13.50;77.60;;;;;;5056903;28;20017;-68
2023/05/15 08:33:40;;;;;;;114.05;55.00;;;13.90;64.70;;;;;;5057018;28;20304;-68
2023/05/15 08:36:07;;;;;;;105.72;53.88;;;14.20;51.20;;;;;;5057101;28;20040;-70
2023/05/15 08:38:33;;;;;;;107.45;54.97;;;14.70;28.60;;;;;;5056371;28;20029;-68
2023/05/15 08:41:07;;;;;;;114.45;56.00;;;15.30;7.70;;;;;;5056292;28;20029;-68
2023/05/15 08:43:35;;;;;;;112.20;54.83;;;15.30;1.00;;;;;;5072788;28;20121;-69
2023/05/15 08:46:02;;;;;;;118.97;58.55;;;15.40;1.00;;;;;;5056100;28;20025;-71
2023/05/15 08:48:29;;;;;;;106.95;55.00;;;15.70;1.00;;;;;;5056622;28;20021;-70
2023/05/15 08:51:00;;;;;;;116.10;59.28;;;15.80;1.00;;;;;;5056597;28;20031;-67
2023/05/15 08:53:28;;;;;;;111.85;56.25;;;15.80;1.00;;;;;;5056559;28;20045;-70
2023/05/15 08:55:54;;;;;;;114.25;57.55;;;15.90;1.00;;;;;;5056570;28;20078;-69
2023/05/15 08:58:24;;;;;;;112.43;58.03;;;15.60;1.00;;;;;;5072499;28;20243;-69
2023/05/15 09:00:51;;;;;;;108.90;56.88;;;15.40;1.00;;;;;;5039954;28;20028;-67
2023/05/15 09:03:18;;;;;;;112.43;56.42;;;15.50;1.00;;;;;;5056518;28;20029;-71
2023/05/15 09:05:46;;;;;;;99.18;52.38;;;15.90;1.00;;;;;;5055879;28;20052;-71
2023/05/15 09:08:14;;;;;;;104.45;56.22;;;16.00;1.00;;;;;;5056799;28;20266;-71
2023/05/15 09:10:41;;;;;;;96.82;51.25;;;16.20;1.00;;;;;;5055928;28;20115;-70
2023/05/15 09:13:08;;;;;;;102.00;52.20;;;16.40;1.00;;;;;;5056585;28;20104;-70
2023/05/15 09:15:36;;;;;;;107.82;55.58;;;16.30;1.00;;;;;;5072600;28;20040;-66
2023/05/15 09:18:02;;;;;;;105.55;54.70;;;15.50;1.00;;;;;;5056426;28;20037;-70
2023/05/15 09:20:31;;;;;;;115.18;56.75;;;15.50;1.00;;;;;;5072473;28;20048;-69
2023/05/15 09:22:59;;;;;;;106.97;53.25;;;15.50;1.00;;;;;;5055569;28;20029;-66
2023/05/15 09:25:32;;;;;;;114.95;55.22;;;15.50;1.00;;;;;;5056502;28;20041;-69
2023/05/15 09:27:58;;;;;;;113.93;55.85;;;15.20;1.00;;;;;;5039234;28;20029;-69
2023/05/15 09:30:26;;;;;;;118.97;57.25;;;15.10;1.00;;;;;;5055970;28;20400;-71
2023/05/15 09:32:54;;;;;;;118.55;57.60;;;14.90;1.00;;;;;;5072418;28;20032;-67
2023/05/15 09:35:37;;;;;;;118.00;57.38;;;15.10;1.00;;;;;;5056387;28;20037;-68
2023/05/15 09:38:11;;;;;;;114.40;56.60;;;14.50;10.50;;;;;;5072247;28;20389;-69
2023/05/15 09:40:39;;;;;;;116.72;55.50;;;14.40;19.50;;;;;;5056433;28;20040;-69
2023/05/15 09:43:05;;;;;;;111.43;53.53;;;14.60;20.60;;;;;;5056298;28;20029;-70
2023/05/15 09:45:30;;;;;;;125.20;58.75;;;15.00;8.30;;;;;;5056550;28;20032;-69
2023/05/15 09:47:59;;;;;;;121.07;58.47;;;15.00;1.00;;;;;;5056133;28;20112;-71
2023/05/15 09:50:33;;;;;;;124.45;60.85;;;15.10;1.00;;;;;;5056247;28;20301;-68
2023/05/15 09:52:59;;;;;;;128.52;62.58;;;14.90;1.00;;;;;;5056337;28;20033;-70
2023/05/15 09:55:26;;;;;;;129.20;62.42;;;14.90;6.20;;;;;;5039127;28;20029;-68
2023/05/15 09:58:09;;;;;;;133.45;64.15;;;15.00;1.00;;;;;;5056152;28;20062;-68
2023/05/15 10:00:37;;;;;;;120.82;59.53;;;14.60;19.80;;;;;;5058166;28;20052;-67
2023/05/15 10:03:07;;;;;;;131.35;61.30;;;14.60;26.40;;;;;;5059612;28;20033;-67
2023/05/15 10:05:34;;;;;;;124.65;60.58;;;14.80;21.70;;;;;;5059444;28;20076;-67
2023/05/15 10:08:00;;;;;;;126.57;60.15;;;14.50;25.30;;;;;;5059526;28;20281;-71
2023/05/15 10:10:27;;;;;;;122.90;59.20;;;14.40;35.90;;;;;;5060118;28;20029;-68
2023/05/15 10:12:57;;;;;;;117.22;57.15;;;14.40;38.20;;;;;;5059515;28;20048;-67
2023/05/15 10:15:23;;;;;;;116.97;57.83;;;14.20;50.10;;;;;;5059532;28;20033;-68
2023/05/15 10:17:50;;;;;;;101.00;53.65;;;14.50;41.30;;;;;;5059677;28;20419;-69
2023/05/15 10:20:21;;;;;;;109.60;55.78;;;14.60;37.00;;;;;;5058609;28;20067;-67
2023/05/15 10:22:51;;;;;;;112.22;57.63;;;14.80;24.70;;;;;;5059324;28;20028;-69
2023/05/15 10:25:37;;;;;;;110.50;56.28;;;15.00;24.10;;;;;;5059195;28;20319;-68
2023/05/15 10:28:03;;;;;;;103.20;56.05;;;15.30;10.90;;;;;;5075494;28;20025;-68
2023/05/15 10:30:31;;;;;;;91.60;51.33;;;15.20;11.10;;;;;;5058350;28;20044;-67
2023/05/15 10:32:57;;;;;;;100.72;54.00;;;15.20;14.30;;;;;;5074966;28;20096;-68
2023/05/15 10:35:25;;;;;;;93.90;52.80;;;15.30;11.70;;;;;;5059030;28;20300;-71
2023/05/15 10:37:52;;;;;;;93.47;52.30;;;15.50;3.70;;;;;;5075399;28;20090;-70
2023/05/15 10:40:18;;;;;;;88.88;48.55;;;15.30;12.60;;;;;;5058568;28;20075;-68
2023/05/15 10:42:48;;;;;;;91.97;48.40;;;15.40;7.10;;;;;;5059212;28;20045;-68
2023/05/15 10:45:15;;;;;;;96.47;50.03;;;15.30;19.30;;;;;;5058354;28;20093;-70
2023/05/15 10:47:43;;;;;;;91.10;50.08;;;15.30;20.10;;;;;;5058907;28;20339;-68
2023/05/15 10:50:11;;;;;;;99.85;53.88;;;15.50;15.80;;;;;;5074719;28;20020;-64
2023/05/15 10:52:38;;;;;;;97.55;52.53;;;15.50;13.10;;;;;;5059176;28;20301;-70
2023/05/15 10:55:15;;;;;;;103.65;53.55;;;15.60;7.70;;;;;;5058983;28;20024;-68
2023/05/15 10:57:43;;;;;;;107.50;53.33;;;15.00;33.60;;;;;;5074537;28;20037;-67
2023/05/15 11:00:30;;;;;;;119.07;56.80;;;14.80;43.20;;;;;;5058670;28;20033;-67
2023/05/15 11:02:57;;;;;;;125.55;60.22;;;14.90;43.00;;;;;;5058608;28;20033;-64
2023/05/15 11:05:24;;;;;;;119.78;57.83;;;15.00;41.50;;;;;;5058394;28;20056;-69
2023/05/15 11:08:14;;;;;;;120.03;57.20;;;15.00;41.50;;;;;;5058585;28;20247;-70
2023/05/15 11:10:40;;;;;;;131.77;60.30;;;15.00;43.60;;;;;;5058102;28;20021;-68
2023/05/15 11:13:06;;;;;;;137.18;62.55;;;14.80;51.80;;;;;;5073463;28;20072;-68
2023/05/15 11:15:43;;;;;;;137.38;63.60;;;14.80;56.50;;;;;;5057683;28;20029;-64
2023/05/15 11:18:09;;;;;;;140.85;63.10;;;14.80;59.70;;;;;;5058259;28;20033;-64
2023/05/15 11:21:01;;;;;;;128.43;54.90;;;15.00;55.40;;;;;;5058209;28;20028;-64
2023/05/15 11:23:27;;;;;;;128.60;53.55;;;15.00;53.80;;;;;;5058071;28;20021;-69
2023/05/15 11:25:56;;;;;;;122.68;49.08;;;14.70;63.30;;;;;;5058248;28;20044;-66
2023/05/15 11:28:23;;;;;;;126.65;50.30;;;14.50;73.90;;;;;;5058135;28;20025;-70
2023/05/15 11:30:58;;;;;;;116.65;46.40;;;14.50;79.70;;;;;;5074062;28;20339;-66
2023/05/15 11:33:28;;;;;;;117.47;46.45;;;14.50;82.20;;;;;;5058045;28;20107;-67
2023/05/15 11:35:58;;;;;;;110.07;42.60;;;14.50;82.90;;;;;;5058303;28;20025;-69
2023/05/15 11:38:25;;;;;;;99.55;40.10;;;14.40;90.10;;;;;;5057858;28;20300;-70
2023/05/15 11:40:54;;;;;;;93.45;39.05;;;14.30;92.60;;;;;;5073921;28;20040;-67
2023/05/15 11:43:27;;;;;;;100.95;38.92;;;14.30;95.80;;;;;;5073660;28;20134;-69
2023/05/15 11:45:54;;;;;;;86.53;35.28;;;14.40;95.60;;;;;;5057703;28;20021;-69
2023/05/15 11:48:30;;;;;;;69.75;29.65;;;14.20;99.00;;;;;;5057767;28;20048;-68
2023/05/15 11:50:56;;;;;;;51.35;23.42;;;14.20;99.70;;;;;;5057794;28;20040;-66
2023/05/15 11:53:23;;;;;;;53.80;24.63;;;14.10;99.70;;;;;;5073677;28;20304;-69
2023/05/15 11:55:51;;;;;;;40.55;20.65;;;14.00;99.90;;;;;;5057605;28;20100;-67
2023/05/15 11:58:20;;;;;;;50.03;22.45;;;14.10;99.90;;;;;;5073784;28;20380;-66
2023/05/15 12:00:48;;;;;;;39.58;19.33;;;14.10;99.90;;;;;;5073462;28;20328;-70
2023/05/15 12:03:19;;;;;;;43.83;20.73;;;14.10;99.90;;;;;;5057479;28;20124;-71
2023/05/15 12:05:45;;;;;;;47.58;22.83;;;14.10;99.90;;;;;;5057501;28;20331;-68
2023/05/15 12:08:12;;;;;;;48.75;23.85;;;14.00;99.90;;;;;;5057668;28;20119;-70
2023/05/15 12:10:42;;;;;;;47.05;22.23;;;14.00;99.90;;;;;;5057518;28;20297;-71
2023/05/15 12:13:09;;;;;;;40.83;21.23;;;13.90;99.90;;;;;;5057314;28;20064;-72
2023/05/15 12:15:41;;;;;;;42.88;21.35;;;13.90;99.90;;;;;;5058032;28;20029;-70
2023/05/15 12:18:07;;;;;;;43.67;21.88;;;13.70;99.90;;;;;;5056559;28;20319;-72
2023/05/15 12:20:34;;;;;;;48.33;23.13;;;13.70;99.90;;;;;;5056402;28;20116;-68
2023/05/15 12:23:04;;;;;;;44.53;20.83;;;13.80;99.90;;;;;;5056749;28;20119;-69
2023/05/15 12:25:34;;;;;;;36.90;18.38;;;13.70;99.90;;;;;;5073034;28;20028;-68
2023/05/15 12:28:02;;;;;;;35.15;17.45;;;13.60;99.90;;;;;;5073070;28;20087;-65